sensor_id;sensor_type;location;lat;lon;timestamp;temperature;humidity
43143;DHT22;28750;59.842;17.584;2022-09-09T00:01:51;7.90;99.90
43143;DHT22;28750;59.842;17.584;2022-09-09T00:04:33;7.80;99.90
43143;DHT22;28750;59.842;17.584;2022-09-09T00:07:02;7.90;99.90
43143;DHT22;28750;59.842;17.584;2022-09-09T00:09:44;8.00;99.90
43143;DHT22;28750;59.842;17.584;2022-09-09T00:17:38;8.00;99.90
43143;DHT22;28750;59.842;17.584;2022-09-09T00:20:13;8.20;99.90
43143;DHT22;28750;59.842;17.584;2022-09-09T00:22:48;8.20;99.90
43143;DHT22;28750;59.842;17.584;2022-09-09T00:25:31;8.30;99.90
43143;DHT22;28750;59.842;17.584;2022-09-09T00:28:04;8.40;99.90
43143;DHT22;28750;59.842;17.584;2022-09-09T00:30:36;8.40;99.90
43143;DHT22;28750;59.842;17.584;2022-09-09T00:33:12;8.40;99.90
43143;DHT22;28750;59.842;17.584;2022-09-09T00:35:48;8.50;99.90
43143;DHT22;28750;59.842;17.584;2022-09-09T00:38:34;8.50;99.90
43143;DHT22;28750;59.842;17.584;2022-09-09T00:41:21;8.50;99.90
43143;DHT22;28750;59.842;17.584;2022-09-09T00:49:58;8.60;99.90
43143;DHT22;28750;59.842;17.584;2022-09-09T00:52:53;8.60;99.90
43143;DHT22;28750;59.842;17.584;2022-09-09T00:57:52;8.50;99.90
43143;DHT22;28750;59.842;17.584;2022-09-09T01:11:05;8.70;99.90
43143;DHT22;28750;59.842;17.584;2022-09-09T01:13:35;8.70;99.90
43143;DHT22;28750;59.842;17.584;2022-09-09T01:16:04;8.70;99.90
43143;DHT22;28750;59.842;17.584;2022-09-09T01:18:46;8.70;99.90
43143;DHT22;28750;59.842;17.584;2022-09-09T01:21:50;8.70;99.90
43143;DHT22;28750;59.842;17.584;2022-09-09T01:24:34;8.70;99.90
43143;DHT22;28750;59.842;17.584;2022-09-09T01:27:03;8.70;99.90
43143;DHT22;28750;59.842;17.584;2022-09-09T01:29:32;8.70;99.90
43143;DHT22;28750;59.842;17.584;2022-09-09T01:35:27;8.70;99.90
43143;DHT22;28750;59.842;17.584;2022-09-09T01:37:56;8.70;99.90
43143;DHT22;28750;59.842;17.584;2022-09-09T01:40:24;8.70;99.90
43143;DHT22;28750;59.842;17.584;2022-09-09T01:42:52;8.70;99.90
43143;DHT22;28750;59.842;17.584;2022-09-09T01:45:20;8.70;99.90
43143;DHT22;28750;59.842;17.584;2022-09-09T01:47:48;8.70;99.90
43143;DHT22;28750;59.842;17.584;2022-09-09T01:50:16;8.70;99.90
43143;DHT22;28750;59.842;17.584;2022-09-09T01:52:46;8.70;99.90
43143;DHT22;28750;59.842;17.584;2022-09-09T01:55:14;8.60;99.90
43143;DHT22;28750;59.842;17.584;2022-09-09T01:57:56;8.60;99.90
43143;DHT22;28750;59.842;17.584;2022-09-09T02:00:24;8.50;99.90
43143;DHT22;28750;59.842;17.584;2022-09-09T02:03:20;8.50;99.90
43143;DHT22;28750;59.842;17.584;2022-09-09T02:08:45;8.40;99.90
43143;DHT22;28750;59.842;17.584;2022-09-09T02:11:26;8.40;99.90
43143;DHT22;28750;59.842;17.584;2022-09-09T02:14:18;8.20;99.90
43143;DHT22;28750;59.842;17.584;2022-09-09T02:16:51;8.40;99.90
43143;DHT22;28750;59.842;17.584;2022-09-09T02:19:22;8.40;99.90
43143;DHT22;28750;59.842;17.584;2022-09-09T02:21:56;8.40;99.90
43143;DHT22;28750;59.842;17.584;2022-09-09T02:24:25;8.60;99.90
43143;DHT22;28750;59.842;17.584;2022-09-09T02:26:54;8.60;99.90
43143;DHT22;28750;59.842;17.584;2022-09-09T02:29:29;8.60;99.90
43143;DHT22;28750;59.842;17.584;2022-09-09T02:32:01;8.60;99.90
43143;DHT22;28750;59.842;17.584;2022-09-09T02:34:31;8.80;99.90
43143;DHT22;28750;59.842;17.584;2022-09-09T02:37:03;8.70;99.90
43143;DHT22;28750;59.842;17.584;2022-09-09T02:39:30;8.70;99.90
43143;DHT22;28750;59.842;17.584;2022-09-09T02:41:57;8.60;99.90
43143;DHT22;28750;59.842;17.584;2022-09-09T02:44:25;8.60;99.90
43143;DHT22;28750;59.842;17.584;2022-09-09T02:55:23;9.10;99.90
43143;DHT22;28750;59.842;17.584;2022-09-09T02:57:52;9.00;99.90
43143;DHT22;28750;59.842;17.584;2022-09-09T03:00:27;8.90;99.90
43143;DHT22;28750;59.842;17.584;2022-09-09T03:02:55;8.80;99.90
43143;DHT22;28750;59.842;17.584;2022-09-09T03:05:23;8.90;99.90
43143;DHT22;28750;59.842;17.584;2022-09-09T03:07:49;8.90;99.90
43143;DHT22;28750;59.842;17.584;2022-09-09T03:10:17;8.90;99.90
43143;DHT22;28750;59.842;17.584;2022-09-09T03:12:44;9.10;99.90
43143;DHT22;28750;59.842;17.584;2022-09-09T03:15:10;9.20;99.90
43143;DHT22;28750;59.842;17.584;2022-09-09T03:17:37;9.20;99.90
43143;DHT22;28750;59.842;17.584;2022-09-09T03:20:05;9.20;99.90
43143;DHT22;28750;59.842;17.584;2022-09-09T03:22:32;9.30;99.90
43143;DHT22;28750;59.842;17.584;2022-09-09T03:24:59;9.30;99.90
43143;DHT22;28750;59.842;17.584;2022-09-09T03:27:27;9.30;99.90
43143;DHT22;28750;59.842;17.584;2022-09-09T03:29:54;9.30;99.90
43143;DHT22;28750;59.842;17.584;2022-09-09T03:32:21;9.30;99.90
43143;DHT22;28750;59.842;17.584;2022-09-09T03:34:51;9.30;99.90
43143;DHT22;28750;59.842;17.584;2022-09-09T03:37:19;9.30;99.90
43143;DHT22;28750;59.842;17.584;2022-09-09T03:39:46;9.30;99.90
43143;DHT22;28750;59.842;17.584;2022-09-09T03:42:14;9.30;99.90
43143;DHT22;28750;59.842;17.584;2022-09-09T03:44:45;9.30;99.90
43143;DHT22;28750;59.842;17.584;2022-09-09T03:47:21;9.30;99.90
43143;DHT22;28750;59.842;17.584;2022-09-09T03:49:48;9.30;99.90
43143;DHT22;28750;59.842;17.584;2022-09-09T03:52:16;9.30;99.90
43143;DHT22;28750;59.842;17.584;2022-09-09T03:54:44;9.40;99.90
43143;DHT22;28750;59.842;17.584;2022-09-09T03:57:11;9.40;99.90
43143;DHT22;28750;59.842;17.584;2022-09-09T03:59:41;9.40;99.90
43143;DHT22;28750;59.842;17.584;2022-09-09T04:02:07;9.40;99.90
43143;DHT22;28750;59.842;17.584;2022-09-09T04:04:34;9.40;99.90
43143;DHT22;28750;59.842;17.584;2022-09-09T04:07:01;9.50;99.90
43143;DHT22;28750;59.842;17.584;2022-09-09T04:09:28;9.50;99.90
43143;DHT22;28750;59.842;17.584;2022-09-09T04:11:55;9.50;99.90
43143;DHT22;28750;59.842;17.584;2022-09-09T04:14:22;9.60;90.90
43143;DHT22;28750;59.842;17.584;2022-09-09T04:16:52;9.50;90.90
43143;DHT22;28750;59.842;17.584;2022-09-09T04:19:19;9.50;95.30
43143;DHT22;28750;59.842;17.584;2022-09-09T04:21:45;9.50;98.70
43143;DHT22;28750;59.842;17.584;2022-09-09T04:24:17;9.50;99.90
43143;DHT22;28750;59.842;17.584;2022-09-09T04:26:44;9.40;99.90
43143;DHT22;28750;59.842;17.584;2022-09-09T04:29:12;9.40;99.90
43143;DHT22;28750;59.842;17.584;2022-09-09T04:31:39;9.40;99.90
43143;DHT22;28750;59.842;17.584;2022-09-09T04:34:08;9.40;99.90
43143;DHT22;28750;59.842;17.584;2022-09-09T04:36:35;9.40;99.90
43143;DHT22;28750;59.842;17.584;2022-09-09T04:39:02;9.40;99.90
43143;DHT22;28750;59.842;17.584;2022-09-09T04:41:29;9.40;99.90
43143;DHT22;28750;59.842;17.584;2022-09-09T04:43:57;9.50;99.90
43143;DHT22;28750;59.842;17.584;2022-09-09T04:46:25;9.40;99.90
43143;DHT22;28750;59.842;17.584;2022-09-09T04:48:52;9.40;99.90
43143;DHT22;28750;59.842;17.584;2022-09-09T04:51:19;9.50;99.90
43143;DHT22;28750;59.842;17.584;2022-09-09T04:53:47;9.50;99.90
43143;DHT22;28750;59.842;17.584;2022-09-09T04:56:16;9.50;99.90
43143;DHT22;28750;59.842;17.584;2022-09-09T04:58:43;9.60;99.90
43143;DHT22;28750;59.842;17.584;2022-09-09T05:01:14;9.70;99.90
43143;DHT22;28750;59.842;17.584;2022-09-09T05:03:43;9.70;99.90
43143;DHT22;28750;59.842;17.584;2022-09-09T05:06:16;9.80;94.90
43143;DHT22;28750;59.842;17.584;2022-09-09T05:08:44;9.80;72.40
43143;DHT22;28750;59.842;17.584;2022-09-09T05:11:25;9.90;32.80
43143;DHT22;28750;59.842;17.584;2022-09-09T05:13:52;10.00;17.60
43143;DHT22;28750;59.842;17.584;2022-09-09T05:16:21;10.00;5.90
43143;DHT22;28750;59.842;17.584;2022-09-09T05:18:48;10.00;5.80
43143;DHT22;28750;59.842;17.584;2022-09-09T05:21:17;10.00;4.80
43143;DHT22;28750;59.842;17.584;2022-09-09T05:23:45;10.10;9.10
43143;DHT22;28750;59.842;17.584;2022-09-09T05:26:14;10.10;1.00
43143;DHT22;28750;59.842;17.584;2022-09-09T05:28:41;10.10;1.50
43143;DHT22;28750;59.842;17.584;2022-09-09T05:31:10;10.10;1.00
43143;DHT22;28750;59.842;17.584;2022-09-09T05:33:39;10.20;1.00
43143;DHT22;28750;59.842;17.584;2022-09-09T05:36:12;10.20;1.00
43143;DHT22;28750;59.842;17.584;2022-09-09T05:38:40;10.30;1.00
43143;DHT22;28750;59.842;17.584;2022-09-09T05:41:08;10.40;1.00
43143;DHT22;28750;59.842;17.584;2022-09-09T05:43:35;10.40;1.00
43143;DHT22;28750;59.842;17.584;2022-09-09T05:46:05;10.40;1.00
43143;DHT22;28750;59.842;17.584;2022-09-09T05:48:35;10.40;1.00
43143;DHT22;28750;59.842;17.584;2022-09-09T05:51:03;10.60;1.00
43143;DHT22;28750;59.842;17.584;2022-09-09T05:53:30;10.60;1.00
43143;DHT22;28750;59.842;17.584;2022-09-09T05:56:08;10.60;1.00
43143;DHT22;28750;59.842;17.584;2022-09-09T05:58:36;10.70;1.00
43143;DHT22;28750;59.842;17.584;2022-09-09T06:01:12;10.70;1.00
43143;DHT22;28750;59.842;17.584;2022-09-09T06:03:41;10.70;1.00
43143;DHT22;28750;59.842;17.584;2022-09-09T06:06:10;10.70;1.00
43143;DHT22;28750;59.842;17.584;2022-09-09T06:08:39;10.70;1.00
43143;DHT22;28750;59.842;17.584;2022-09-09T06:11:19;10.80;1.00
43143;DHT22;28750;59.842;17.584;2022-09-09T06:13:47;10.80;1.00
43143;DHT22;28750;59.842;17.584;2022-09-09T06:16:18;10.90;1.00
43143;DHT22;28750;59.842;17.584;2022-09-09T06:18:46;10.90;99.90
43143;DHT22;28750;59.842;17.584;2022-09-09T06:21:25;10.90;99.90
43143;DHT22;28750;59.842;17.584;2022-09-09T06:23:53;11.00;1.00
43143;DHT22;28750;59.842;17.584;2022-09-09T06:26:35;11.00;1.00
43143;DHT22;28750;59.842;17.584;2022-09-09T06:29:03;11.00;1.00
43143;DHT22;28750;59.842;17.584;2022-09-09T06:31:31;11.00;1.00
43143;DHT22;28750;59.842;17.584;2022-09-09T06:33:59;11.00;99.90
43143;DHT22;28750;59.842;17.584;2022-09-09T06:36:28;11.00;1.00
43143;DHT22;28750;59.842;17.584;2022-09-09T06:38:57;11.00;1.00
43143;DHT22;28750;59.842;17.584;2022-09-09T06:41:26;11.00;99.90
43143;DHT22;28750;59.842;17.584;2022-09-09T06:43:54;11.10;1.00
43143;DHT22;28750;59.842;17.584;2022-09-09T06:46:27;11.00;1.00
43143;DHT22;28750;59.842;17.584;2022-09-09T06:48:56;11.10;99.90
43143;DHT22;28750;59.842;17.584;2022-09-09T06:51:27;11.10;99.90
43143;DHT22;28750;59.842;17.584;2022-09-09T06:53:58;11.10;99.90
43143;DHT22;28750;59.842;17.584;2022-09-09T06:56:33;11.20;99.90
43143;DHT22;28750;59.842;17.584;2022-09-09T06:59:03;11.20;99.90
43143;DHT22;28750;59.842;17.584;2022-09-09T07:01:41;11.20;99.90
43143;DHT22;28750;59.842;17.584;2022-09-09T07:04:09;11.20;99.90
43143;DHT22;28750;59.842;17.584;2022-09-09T07:06:39;11.30;99.90
43143;DHT22;28750;59.842;17.584;2022-09-09T07:09:08;11.20;99.90
43143;DHT22;28750;59.842;17.584;2022-09-09T07:11:43;11.30;99.90
43143;DHT22;28750;59.842;17.584;2022-09-09T07:14:11;11.20;99.90
43143;DHT22;28750;59.842;17.584;2022-09-09T07:16:43;11.30;99.90
43143;DHT22;28750;59.842;17.584;2022-09-09T07:19:11;11.40;99.90
43143;DHT22;28750;59.842;17.584;2022-09-09T07:21:38;11.50;99.90
43143;DHT22;28750;59.842;17.584;2022-09-09T07:24:06;11.70;99.90
43143;DHT22;28750;59.842;17.584;2022-09-09T07:26:36;11.90;99.90
43143;DHT22;28750;59.842;17.584;2022-09-09T07:29:03;12.20;76.00
43143;DHT22;28750;59.842;17.584;2022-09-09T07:31:36;12.50;99.90
43143;DHT22;28750;59.842;17.584;2022-09-09T07:34:04;12.60;1.00
43143;DHT22;28750;59.842;17.584;2022-09-09T07:36:34;12.80;99.90
43143;DHT22;28750;59.842;17.584;2022-09-09T07:39:10;12.80;99.90
43143;DHT22;28750;59.842;17.584;2022-09-09T07:41:41;12.80;1.00
43143;DHT22;28750;59.842;17.584;2022-09-09T07:44:13;13.00;99.90
43143;DHT22;28750;59.842;17.584;2022-09-09T07:46:41;13.40;99.90
43143;DHT22;28750;59.842;17.584;2022-09-09T07:49:09;13.60;99.90
43143;DHT22;28750;59.842;17.584;2022-09-09T07:51:39;13.90;99.90
43143;DHT22;28750;59.842;17.584;2022-09-09T07:54:10;14.10;95.90
43143;DHT22;28750;59.842;17.584;2022-09-09T07:56:39;14.50;1.00
43143;DHT22;28750;59.842;17.584;2022-09-09T07:59:07;14.80;99.90
43143;DHT22;28750;59.842;17.584;2022-09-09T08:01:41;15.10;1.00
43143;DHT22;28750;59.842;17.584;2022-09-09T08:04:13;15.10;99.90
43143;DHT22;28750;59.842;17.584;2022-09-09T08:06:49;15.30;99.90
43143;DHT22;28750;59.842;17.584;2022-09-09T08:09:18;15.40;99.90
43143;DHT22;28750;59.842;17.584;2022-09-09T08:11:46;15.40;99.90
43143;DHT22;28750;59.842;17.584;2022-09-09T08:14:13;15.40;98.40
43143;DHT22;28750;59.842;17.584;2022-09-09T08:16:43;15.20;1.00
43143;DHT22;28750;59.842;17.584;2022-09-09T08:19:11;15.20;99.90
43143;DHT22;28750;59.842;17.584;2022-09-09T08:21:42;14.90;27.80
43143;DHT22;28750;59.842;17.584;2022-09-09T08:24:10;14.90;99.90
43143;DHT22;28750;59.842;17.584;2022-09-09T08:26:42;15.00;99.90
43143;DHT22;28750;59.842;17.584;2022-09-09T08:29:11;14.50;99.90
43143;DHT22;28750;59.842;17.584;2022-09-09T08:34:08;14.70;1.00
43143;DHT22;28750;59.842;17.584;2022-09-09T08:36:44;14.70;1.00
43143;DHT22;28750;59.842;17.584;2022-09-09T08:39:16;14.90;1.00
43143;DHT22;28750;59.842;17.584;2022-09-09T08:41:56;15.20;99.90
43143;DHT22;28750;59.842;17.584;2022-09-09T08:44:44;15.50;29.30
43143;DHT22;28750;59.842;17.584;2022-09-09T08:55:29;15.40;99.90
43143;DHT22;28750;59.842;17.584;2022-09-09T08:58:13;15.50;1.00
43143;DHT22;28750;59.842;17.584;2022-09-09T09:06:54;15.00;99.90
43143;DHT22;28750;59.842;17.584;2022-09-09T09:12:26;15.10;99.90
43143;DHT22;28750;59.842;17.584;2022-09-09T09:14:55;15.60;1.00
43143;DHT22;28750;59.842;17.584;2022-09-09T09:17:27;16.00;1.00
43143;DHT22;28750;59.842;17.584;2022-09-09T09:19:57;16.40;99.90
43143;DHT22;28750;59.842;17.584;2022-09-09T09:28:02;15.40;99.90
43143;DHT22;28750;59.842;17.584;2022-09-09T09:30:53;15.30;99.90
43143;DHT22;28750;59.842;17.584;2022-09-09T09:33:28;15.10;99.90
43143;DHT22;28750;59.842;17.584;2022-09-09T09:35:56;15.20;99.90
43143;DHT22;28750;59.842;17.584;2022-09-09T09:38:27;15.10;99.90
43143;DHT22;28750;59.842;17.584;2022-09-09T09:40:57;15.10;99.90
43143;DHT22;28750;59.842;17.584;2022-09-09T09:43:36;15.20;99.90
43143;DHT22;28750;59.842;17.584;2022-09-09T09:46:04;15.20;99.90
43143;DHT22;28750;59.842;17.584;2022-09-09T09:48:31;15.20;99.90
43143;DHT22;28750;59.842;17.584;2022-09-09T09:51:10;15.10;99.90
43143;DHT22;28750;59.842;17.584;2022-09-09T09:53:39;15.20;99.90
43143;DHT22;28750;59.842;17.584;2022-09-09T09:56:12;15.30;99.90
43143;DHT22;28750;59.842;17.584;2022-09-09T10:01:26;16.50;99.90
43143;DHT22;28750;59.842;17.584;2022-09-09T10:04:00;16.30;99.90
43143;DHT22;28750;59.842;17.584;2022-09-09T10:06:36;15.70;99.90
43143;DHT22;28750;59.842;17.584;2022-09-09T10:15:06;15.40;99.90
43143;DHT22;28750;59.842;17.584;2022-09-09T10:20:46;17.60;99.90
43143;DHT22;28750;59.842;17.584;2022-09-09T10:23:55;18.20;24.60
43143;DHT22;28750;59.842;17.584;2022-09-09T10:37:11;16.10;17.40
43143;DHT22;28750;59.842;17.584;2022-09-09T10:39:44;15.60;1.00
43143;DHT22;28750;59.842;17.584;2022-09-09T10:42:16;17.30;99.90
43143;DHT22;28750;59.842;17.584;2022-09-09T10:53:30;15.80;63.80
43143;DHT22;28750;59.842;17.584;2022-09-09T10:56:06;16.10;14.70
43143;DHT22;28750;59.842;17.584;2022-09-09T10:58:53;16.00;99.20
43143;DHT22;28750;59.842;17.584;2022-09-09T11:01:28;15.80;99.90
43143;DHT22;28750;59.842;17.584;2022-09-09T11:04:19;16.10;99.90
43143;DHT22;28750;59.842;17.584;2022-09-09T11:06:57;15.80;99.90
43143;DHT22;28750;59.842;17.584;2022-09-09T11:09:28;15.40;99.90
43143;DHT22;28750;59.842;17.584;2022-09-09T11:11:59;16.90;99.90
43143;DHT22;28750;59.842;17.584;2022-09-09T11:17:06;17.50;16.20
43143;DHT22;28750;59.842;17.584;2022-09-09T11:19:42;17.30;99.90
43143;DHT22;28750;59.842;17.584;2022-09-09T11:22:32;16.50;98.00
43143;DHT22;28750;59.842;17.584;2022-09-09T11:25:16;16.40;99.90
43143;DHT22;28750;59.842;17.584;2022-09-09T11:36:48;16.20;1.00
43143;DHT22;28750;59.842;17.584;2022-09-09T11:42:16;16.40;93.50
43143;DHT22;28750;59.842;17.584;2022-09-09T11:44:44;16.30;99.90
43143;DHT22;28750;59.842;17.584;2022-09-09T11:47:27;17.10;99.90
43143;DHT22;28750;59.842;17.584;2022-09-09T11:52:46;18.30;14.10
43143;DHT22;28750;59.842;17.584;2022-09-09T11:55:34;18.80;1.00
43143;DHT22;28750;59.842;17.584;2022-09-09T12:00:41;18.50;1.00
43143;DHT22;28750;59.842;17.584;2022-09-09T12:03:35;17.70;1.00
43143;DHT22;28750;59.842;17.584;2022-09-09T12:06:32;17.50;35.20
43143;DHT22;28750;59.842;17.584;2022-09-09T12:11:48;17.00;99.90
43143;DHT22;28750;59.842;17.584;2022-09-09T12:14:36;16.70;67.10
43143;DHT22;28750;59.842;17.584;2022-09-09T12:17:25;16.50;99.90
43143;DHT22;28750;59.842;17.584;2022-09-09T12:22:42;18.10;63.80
43143;DHT22;28750;59.842;17.584;2022-09-09T12:30:53;17.00;1.00
43143;DHT22;28750;59.842;17.584;2022-09-09T12:33:22;16.90;31.50
43143;DHT22;28750;59.842;17.584;2022-09-09T12:35:56;16.80;85.30
43143;DHT22;28750;59.842;17.584;2022-09-09T12:38:34;16.10;13.60
43143;DHT22;28750;59.842;17.584;2022-09-09T12:41:01;15.90;58.10
43143;DHT22;28750;59.842;17.584;2022-09-09T12:43:28;16.10;25.70
43143;DHT22;28750;59.842;17.584;2022-09-09T12:46:02;16.00;99.90
43143;DHT22;28750;59.842;17.584;2022-09-09T12:48:40;16.00;99.90
43143;DHT22;28750;59.842;17.584;2022-09-09T12:51:40;16.10;86.30
43143;DHT22;28750;59.842;17.584;2022-09-09T12:54:12;16.30;99.90
43143;DHT22;28750;59.842;17.584;2022-09-09T12:56:46;16.50;89.20
43143;DHT22;28750;59.842;17.584;2022-09-09T12:59:34;16.80;5.40
43143;DHT22;28750;59.842;17.584;2022-09-09T13:02:11;16.60;1.00
43143;DHT22;28750;59.842;17.584;2022-09-09T13:04:38;16.60;1.00
43143;DHT22;28750;59.842;17.584;2022-09-09T13:07:09;16.20;74.20
43143;DHT22;28750;59.842;17.584;2022-09-09T13:09:37;16.10;57.00
43143;DHT22;28750;59.842;17.584;2022-09-09T13:12:05;16.10;93.30
43143;DHT22;28750;59.842;17.584;2022-09-09T13:14:35;16.00;26.60
43143;DHT22;28750;59.842;17.584;2022-09-09T13:17:06;15.90;4.10
43143;DHT22;28750;59.842;17.584;2022-09-09T13:19:38;15.90;99.90
43143;DHT22;28750;59.842;17.584;2022-09-09T13:22:13;15.80;99.90
43143;DHT22;28750;59.842;17.584;2022-09-09T13:24:40;15.90;99.90
43143;DHT22;28750;59.842;17.584;2022-09-09T13:27:53;15.80;99.90
43143;DHT22;28750;59.842;17.584;2022-09-09T13:30:32;15.80;99.90
43143;DHT22;28750;59.842;17.584;2022-09-09T13:38:15;15.40;99.90
43143;DHT22;28750;59.842;17.584;2022-09-09T13:40:59;15.40;99.90
43143;DHT22;28750;59.842;17.584;2022-09-09T13:43:42;15.40;99.90
43143;DHT22;28750;59.842;17.584;2022-09-09T13:46:34;15.60;99.90
43143;DHT22;28750;59.842;17.584;2022-09-09T13:49:17;15.60;99.90
43143;DHT22;28750;59.842;17.584;2022-09-09T13:51:50;15.70;99.90
43143;DHT22;28750;59.842;17.584;2022-09-09T13:54:20;15.70;99.90
43143;DHT22;28750;59.842;17.584;2022-09-09T13:56:48;15.70;99.90
43143;DHT22;28750;59.842;17.584;2022-09-09T13:59:18;15.60;99.90
43143;DHT22;28750;59.842;17.584;2022-09-09T14:01:47;15.60;99.90
43143;DHT22;28750;59.842;17.584;2022-09-09T14:04:14;15.60;99.90
43143;DHT22;28750;59.842;17.584;2022-09-09T14:06:42;15.30;99.90
43143;DHT22;28750;59.842;17.584;2022-09-09T14:09:14;15.30;99.90
43143;DHT22;28750;59.842;17.584;2022-09-09T14:11:42;15.30;99.90
43143;DHT22;28750;59.842;17.584;2022-09-09T14:14:09;15.30;99.90
43143;DHT22;28750;59.842;17.584;2022-09-09T14:16:36;15.30;99.90
43143;DHT22;28750;59.842;17.584;2022-09-09T14:19:03;15.40;99.90
43143;DHT22;28750;59.842;17.584;2022-09-09T14:21:30;15.30;99.90
43143;DHT22;28750;59.842;17.584;2022-09-09T14:23:58;15.40;99.90
43143;DHT22;28750;59.842;17.584;2022-09-09T14:26:25;15.50;99.90
43143;DHT22;28750;59.842;17.584;2022-09-09T14:28:54;15.80;51.20
43143;DHT22;28750;59.842;17.584;2022-09-09T14:31:22;15.80;43.40
43143;DHT22;28750;59.842;17.584;2022-09-09T14:33:50;15.90;41.30
43143;DHT22;28750;59.842;17.584;2022-09-09T14:36:18;15.60;99.90
43143;DHT22;28750;59.842;17.584;2022-09-09T14:38:45;15.20;99.90
43143;DHT22;28750;59.842;17.584;2022-09-09T14:41:15;15.20;99.90
43143;DHT22;28750;59.842;17.584;2022-09-09T14:43:43;15.30;99.90
43143;DHT22;28750;59.842;17.584;2022-09-09T14:46:13;15.20;99.90
43143;DHT22;28750;59.842;17.584;2022-09-09T14:48:41;15.10;99.90
43143;DHT22;28750;59.842;17.584;2022-09-09T14:51:20;15.00;99.90
43143;DHT22;28750;59.842;17.584;2022-09-09T14:53:51;15.00;99.90
43143;DHT22;28750;59.842;17.584;2022-09-09T14:56:21;15.10;99.90
43143;DHT22;28750;59.842;17.584;2022-09-09T14:58:49;15.20;99.90
43143;DHT22;28750;59.842;17.584;2022-09-09T15:01:20;15.20;99.90
43143;DHT22;28750;59.842;17.584;2022-09-09T15:03:56;15.10;99.90
43143;DHT22;28750;59.842;17.584;2022-09-09T15:06:25;15.00;99.90
43143;DHT22;28750;59.842;17.584;2022-09-09T15:08:53;14.90;99.90
43143;DHT22;28750;59.842;17.584;2022-09-09T15:11:23;14.80;99.90
43143;DHT22;28750;59.842;17.584;2022-09-09T15:13:51;14.90;99.90
43143;DHT22;28750;59.842;17.584;2022-09-09T15:16:21;14.70;99.90
43143;DHT22;28750;59.842;17.584;2022-09-09T15:18:52;14.50;99.90
43143;DHT22;28750;59.842;17.584;2022-09-09T15:21:21;14.50;99.90
43143;DHT22;28750;59.842;17.584;2022-09-09T15:23:50;14.50;99.90
43143;DHT22;28750;59.842;17.584;2022-09-09T15:26:18;14.40;99.90
43143;DHT22;28750;59.842;17.584;2022-09-09T15:28:46;14.20;99.90
43143;DHT22;28750;59.842;17.584;2022-09-09T15:31:22;14.10;99.90
43143;DHT22;28750;59.842;17.584;2022-09-09T15:33:55;14.20;99.90
43143;DHT22;28750;59.842;17.584;2022-09-09T15:36:30;14.20;99.90
43143;DHT22;28750;59.842;17.584;2022-09-09T15:38:59;14.00;1.00
43143;DHT22;28750;59.842;17.584;2022-09-09T15:41:27;14.00;99.90
43143;DHT22;28750;59.842;17.584;2022-09-09T15:43:56;13.90;99.90
43143;DHT22;28750;59.842;17.584;2022-09-09T15:46:28;13.80;99.90
43143;DHT22;28750;59.842;17.584;2022-09-09T15:48:57;13.80;99.90
43143;DHT22;28750;59.842;17.584;2022-09-09T15:51:25;13.80;99.90
43143;DHT22;28750;59.842;17.584;2022-09-09T15:53:58;13.70;1.00
43143;DHT22;28750;59.842;17.584;2022-09-09T15:56:27;13.60;1.00
43143;DHT22;28750;59.842;17.584;2022-09-09T15:58:56;13.50;1.00
43143;DHT22;28750;59.842;17.584;2022-09-09T16:01:25;13.50;1.00
43143;DHT22;28750;59.842;17.584;2022-09-09T16:03:53;13.40;1.00
43143;DHT22;28750;59.842;17.584;2022-09-09T16:06:22;13.40;1.00
43143;DHT22;28750;59.842;17.584;2022-09-09T16:08:52;13.40;1.00
43143;DHT22;28750;59.842;17.584;2022-09-09T16:13:51;13.40;21.10
43143;DHT22;28750;59.842;17.584;2022-09-09T16:16:21;13.30;36.60
43143;DHT22;28750;59.842;17.584;2022-09-09T16:19:12;13.20;79.00
43143;DHT22;28750;59.842;17.584;2022-09-09T16:21:42;13.30;27.70
43143;DHT22;28750;59.842;17.584;2022-09-09T16:24:12;13.20;99.90
43143;DHT22;28750;59.842;17.584;2022-09-09T16:26:42;13.10;99.90
43143;DHT22;28750;59.842;17.584;2022-09-09T16:29:12;13.00;99.90
43143;DHT22;28750;59.842;17.584;2022-09-09T16:31:39;13.00;99.90
43143;DHT22;28750;59.842;17.584;2022-09-09T16:34:08;12.90;99.90
43143;DHT22;28750;59.842;17.584;2022-09-09T16:36:37;12.80;99.90
43143;DHT22;28750;59.842;17.584;2022-09-09T16:39:15;12.80;99.90
43143;DHT22;28750;59.842;17.584;2022-09-09T16:41:43;12.70;99.90
43143;DHT22;28750;59.842;17.584;2022-09-09T16:44:12;12.60;1.00
43143;DHT22;28750;59.842;17.584;2022-09-09T16:46:41;12.50;1.00
43143;DHT22;28750;59.842;17.584;2022-09-09T16:49:13;12.50;1.00
43143;DHT22;28750;59.842;17.584;2022-09-09T16:51:44;12.50;1.00
43143;DHT22;28750;59.842;17.584;2022-09-09T16:54:12;12.40;62.20
43143;DHT22;28750;59.842;17.584;2022-09-09T16:56:42;12.20;99.90
43143;DHT22;28750;59.842;17.584;2022-09-09T16:59:15;12.50;1.00
43143;DHT22;28750;59.842;17.584;2022-09-09T17:01:43;12.30;18.70
43143;DHT22;28750;59.842;17.584;2022-09-09T17:04:20;12.30;25.30
43143;DHT22;28750;59.842;17.584;2022-09-09T17:06:50;12.20;66.70
43143;DHT22;28750;59.842;17.584;2022-09-09T17:09:19;12.10;99.90
43143;DHT22;28750;59.842;17.584;2022-09-09T17:11:46;12.00;99.90
43143;DHT22;28750;59.842;17.584;2022-09-09T17:14:17;11.90;99.90
43143;DHT22;28750;59.842;17.584;2022-09-09T17:16:45;11.90;99.90
43143;DHT22;28750;59.842;17.584;2022-09-09T17:19:12;11.70;99.90
43143;DHT22;28750;59.842;17.584;2022-09-09T17:21:40;11.70;1.00
43143;DHT22;28750;59.842;17.584;2022-09-09T17:24:07;11.60;1.00
43143;DHT22;28750;59.842;17.584;2022-09-09T17:26:34;11.60;1.00
43143;DHT22;28750;59.842;17.584;2022-09-09T17:29:03;11.50;1.00
43143;DHT22;28750;59.842;17.584;2022-09-09T17:31:31;11.40;1.00
43143;DHT22;28750;59.842;17.584;2022-09-09T17:34:00;11.30;37.90
43143;DHT22;28750;59.842;17.584;2022-09-09T17:36:31;11.30;59.10
43143;DHT22;28750;59.842;17.584;2022-09-09T17:38:59;11.20;98.10
43143;DHT22;28750;59.842;17.584;2022-09-09T17:41:37;11.10;99.90
43143;DHT22;28750;59.842;17.584;2022-09-09T17:44:05;11.20;82.40
43143;DHT22;28750;59.842;17.584;2022-09-09T17:46:38;11.10;28.40
43143;DHT22;28750;59.842;17.584;2022-09-09T17:49:08;11.10;23.80
43143;DHT22;28750;59.842;17.584;2022-09-09T17:51:36;10.90;97.20
43143;DHT22;28750;59.842;17.584;2022-09-09T17:54:06;10.80;99.90
43143;DHT22;28750;59.842;17.584;2022-09-09T17:56:34;10.70;99.90
43143;DHT22;28750;59.842;17.584;2022-09-09T17:59:04;10.60;99.90
43143;DHT22;28750;59.842;17.584;2022-09-09T18:01:34;10.50;99.90
43143;DHT22;28750;59.842;17.584;2022-09-09T18:04:04;10.50;99.90
43143;DHT22;28750;59.842;17.584;2022-09-09T18:06:34;10.60;99.90